Time;durP1;ratioP1;P1;durP2;ratioP2;P2;SDS_P1;SDS_P2;PMS_P1;PMS_P2;Temp;Humidity;BMP_temperature;BMP_pressure;BME280_temperature;BME280_humidity;BME280_pressure;Samples;Min_cycle;Max_cycle;Signal;HPM_P1;HPM_P2
2023/09/02 00:02:25;;;;;;;9.95;8.90;;;12.80;99.90;;;;;;6119849;23;20367;-88
2023/09/02 00:04:51;;;;;;;7.63;6.93;;;12.80;99.90;;;;;;6097375;23;20363;-89
2023/09/02 00:07:16;;;;;;;8.23;7.20;;;12.40;99.90;;;;;;6120317;23;20406;-88
2023/09/02 00:09:42;;;;;;;8.88;8.00;;;12.50;99.90;;;;;;6123274;23;20398;-89
2023/09/02 00:12:08;;;;;;;9.47;8.53;;;13.10;99.90;;;;;;6098910;23;20413;-88
2023/09/02 00:14:34;;;;;;;9.52;8.55;;;12.40;99.90;;;;;;6098059;23;21054;-88
2023/09/02 00:17:00;;;;;;;13.70;11.27;;;12.50;99.90;;;;;;6099305;23;20367;-88
2023/09/02 00:19:25;;;;;;;12.35;11.15;;;12.40;99.90;;;;;;6122348;23;20450;-88
2023/09/02 00:21:52;;;;;;;13.53;12.13;;;13.20;99.90;;;;;;6123698;23;20852;-88
2023/09/02 00:24:17;;;;;;;11.60;10.40;;;12.30;99.90;;;;;;6097669;23;20709;-89
2023/09/02 00:26:43;;;;;;;10.20;9.27;;;12.60;99.90;;;;;;6124122;23;20387;-88
2023/09/02 00:29:09;;;;;;;11.65;10.60;;;12.30;99.90;;;;;;6122453;23;20398;-88
2023/09/02 00:31:35;;;;;;;10.20;9.20;;;12.50;99.90;;;;;;6098349;23;20378;-88
2023/09/02 00:34:00;;;;;;;9.97;9.07;;;12.50;99.90;;;;;;6123679;23;20425;-88
2023/09/02 00:36:27;;;;;;;11.13;9.90;;;12.30;99.90;;;;;;6097565;23;20379;-88
2023/09/02 00:38:53;;;;;;;10.90;9.85;;;12.20;99.90;;;;;;6099455;23;20385;-88
2023/09/02 00:41:29;;;;;;;11.00;10.00;;;11.80;99.90;;;;;;6116557;23;20956;-88
2023/09/02 00:43:58;;;;;;;9.60;8.60;;;12.30;99.90;;;;;;6094051;23;20396;-88
2023/09/02 00:46:24;;;;;;;11.40;10.30;;;12.20;99.90;;;;;;6117169;23;20384;-88
2023/09/02 00:48:49;;;;;;;13.25;11.68;;;12.20;99.90;;;;;;6117858;23;20401;-88
2023/09/02 00:51:15;;;;;;;14.65;13.13;;;12.50;99.90;;;;;;6093969;23;20392;-88
2023/09/02 00:53:41;;;;;;;12.10;10.10;;;13.10;99.90;;;;;;6116997;23;20881;-88
2023/09/02 00:56:07;;;;;;;11.70;10.00;;;12.60;99.90;;;;;;6094187;23;20941;-88
2023/09/02 00:58:34;;;;;;;9.90;8.50;;;12.20;99.90;;;;;;6116474;23;20864;-88
2023/09/02 01:01:02;;;;;;;9.30;8.40;;;12.10;99.90;;;;;;6118337;23;20369;-88
2023/09/02 01:03:28;;;;;;;11.05;9.52;;;12.00;99.90;;;;;;6092223;23;20834;-88
2023/09/02 01:05:54;;;;;;;8.68;7.78;;;11.70;99.90;;;;;;6118071;23;20408;-88
2023/09/02 01:08:19;;;;;;;10.43;9.40;;;12.40;99.90;;;;;;6117536;23;20460;-88
2023/09/02 01:10:45;;;;;;;9.73;8.73;;;11.30;99.90;;;;;;6116916;23;20499;-88
2023/09/02 01:13:12;;;;;;;10.13;9.00;;;11.30;99.90;;;;;;6118701;23;20391;-88
2023/09/02 01:15:37;;;;;;;8.90;8.00;;;11.80;99.90;;;;;;6116462;23;20889;-87
2023/09/02 01:18:03;;;;;;;9.35;8.45;;;11.60;99.90;;;;;;6093734;23;20385;-88
2023/09/02 01:20:57;;;;;;;7.57;6.88;;;11.60;99.90;;;;;;6091488;23;20369;-88
2023/09/02 01:23:47;;;;;;;7.00;6.30;;;11.60;99.90;;;;;;6093477;23;20436;-88
2023/09/02 01:26:33;;;;;;;8.88;7.97;;;11.60;99.90;;;;;;6118053;23;20456;-87
2023/09/02 01:29:06;;;;;;;6.90;6.28;;;11.50;99.90;;;;;;6091939;23;20400;-88
2023/09/02 01:31:33;;;;;;;10.67;9.67;;;11.50;99.90;;;;;;6118090;23;20379;-88
2023/09/02 01:34:00;;;;;;;10.90;9.80;;;11.50;99.90;;;;;;6116538;23;20432;-88
2023/09/02 01:36:27;;;;;;;11.63;10.50;;;11.50;99.90;;;;;;6117618;23;20381;-88
2023/09/02 01:38:53;;;;;;;10.50;9.43;;;11.60;99.90;;;;;;6118044;23;20423;-87
2023/09/02 01:41:22;;;;;;;9.40;8.50;;;11.60;99.90;;;;;;6116309;23;20391;-88
2023/09/02 01:43:48;;;;;;;8.63;7.75;;;11.40;99.90;;;;;;6118150;23;20698;-87
2023/09/02 01:46:15;;;;;;;8.65;7.85;;;11.40;99.90;;;;;;6115819;23;20383;-88
2023/09/02 01:48:41;;;;;;;11.13;10.00;;;12.20;99.90;;;;;;6117939;23;20369;-88
2023/09/02 01:51:08;;;;;;;9.50;8.50;;;12.30;99.90;;;;;;6116488;23;20395;-87
2023/09/02 01:53:34;;;;;;;17.88;13.23;;;11.30;99.90;;;;;;6117512;23;20384;-87
2023/09/02 01:56:00;;;;;;;12.65;11.23;;;11.60;99.90;;;;;;6117376;23;20380;-88
2023/09/02 01:58:25;;;;;;;10.68;9.60;;;11.60;99.90;;;;;;6116279;23;20376;-87
2023/09/02 02:00:51;;;;;;;10.73;9.63;;;11.40;99.90;;;;;;6093414;23;20372;-88
2023/09/02 02:03:24;;;;;;;9.77;8.97;;;11.30;99.90;;;;;;6115914;23;20472;-88
2023/09/02 02:05:53;;;;;;;8.70;7.90;;;11.60;99.90;;;;;;6117753;23;20407;-88
2023/09/02 02:08:35;;;;;;;11.40;10.30;;;11.40;99.90;;;;;;6115879;23;20387;-87
2023/09/02 02:11:04;;;;;;;10.40;9.30;;;11.30;99.90;;;;;;6092729;23;20381;-88
2023/09/02 02:13:29;;;;;;;10.67;9.57;;;11.40;99.90;;;;;;6092987;23;20441;-87
2023/09/02 02:15:55;;;;;;;9.18;8.27;;;11.30;99.90;;;;;;6091503;23;20373;-88
2023/09/02 02:18:20;;;;;;;9.43;8.50;;;11.30;99.90;;;;;;6093207;23;20439;-88
2023/09/02 02:21:05;;;;;;;8.40;7.60;;;11.40;99.90;;;;;;6091169;23;20376;-87
2023/09/02 02:23:31;;;;;;;6.90;6.30;;;11.30;99.90;;;;;;6117612;23;20403;-87
2023/09/02 02:26:01;;;;;;;7.80;7.10;;;11.30;99.90;;;;;;6116125;23;20373;-87
2023/09/02 02:28:27;;;;;;;8.95;8.15;;;11.20;99.90;;;;;;6092413;23;20388;-88
2023/09/02 02:30:52;;;;;;;9.23;8.33;;;10.80;99.90;;;;;;6117291;23;20384;-87
2023/09/02 02:33:18;;;;;;;9.50;8.57;;;11.10;99.90;;;;;;6091376;23;20473;-88
2023/09/02 02:35:44;;;;;;;9.70;8.57;;;11.50;99.90;;;;;;6093461;23;20385;-88
2023/09/02 02:38:09;;;;;;;10.77;9.77;;;11.30;99.90;;;;;;6115333;23;20791;-87
2023/09/02 02:40:35;;;;;;;8.65;7.85;;;11.20;99.90;;;;;;6092777;23;20517;-87
2023/09/02 02:43:01;;;;;;;8.40;7.50;;;10.80;99.90;;;;;;6091581;23;20380;-87
2023/09/02 02:45:28;;;;;;;8.10;7.40;;;11.20;99.90;;;;;;6116951;23;20384;-87
2023/09/02 02:47:54;;;;;;;10.47;9.47;;;11.30;99.90;;;;;;6117076;23;20858;-88
2023/09/02 02:50:20;;;;;;;13.33;12.03;;;11.00;99.90;;;;;;6091609;23;20404;-87
2023/09/02 02:52:46;;;;;;;11.33;10.27;;;11.30;99.90;;;;;;6117580;23;20373;-87
2023/09/02 02:55:12;;;;;;;10.52;9.52;;;11.30;99.90;;;;;;6090992;23;20377;-88
2023/09/02 02:57:38;;;;;;;11.38;10.25;;;10.80;99.90;;;;;;6117265;23;20861;-88
2023/09/02 03:00:07;;;;;;;11.30;10.20;;;11.20;99.90;;;;;;6091083;23;20609;-87
2023/09/02 03:02:33;;;;;;;11.98;10.57;;;10.90;99.90;;;;;;6117107;23;20435;-87
2023/09/02 03:04:58;;;;;;;12.00;10.70;;;11.10;99.90;;;;;;6115982;23;20739;-88
2023/09/02 03:07:24;;;;;;;6.03;5.53;;;11.10;99.90;;;;;;6116535;23;20373;-87
2023/09/02 03:09:50;;;;;;;7.22;6.53;;;11.80;99.90;;;;;;6092570;23;20404;-87
2023/09/02 03:12:15;;;;;;;7.70;6.90;;;10.90;99.90;;;;;;6091455;23;20373;-87
2023/09/02 03:14:41;;;;;;;7.70;7.00;;;10.90;99.90;;;;;;6116980;23;20373;-88
2023/09/02 03:17:07;;;;;;;7.43;6.82;;;11.00;99.90;;;;;;6090936;23;20379;-88
2023/09/02 03:19:33;;;;;;;8.93;8.13;;;10.90;99.90;;;;;;6116637;23;20368;-87
2023/09/02 03:21:58;;;;;;;8.90;8.10;;;10.90;99.90;;;;;;6089781;23;20444;-87
2023/09/02 03:24:24;;;;;;;10.67;9.50;;;10.90;99.90;;;;;;6091479;23;20364;-87
2023/09/02 03:26:50;;;;;;;10.98;9.95;;;10.90;99.90;;;;;;6091218;23;20699;-88
2023/09/02 03:29:15;;;;;;;12.87;10.30;;;11.60;99.90;;;;;;6091654;23;20399;-87
2023/09/02 03:31:41;;;;;;;10.90;9.65;;;10.80;99.90;;;;;;6116879;23;20912;-87
2023/09/02 03:34:06;;;;;;;9.23;8.33;;;11.40;99.90;;;;;;6115449;23;20381;-88
2023/09/02 03:36:32;;;;;;;10.35;8.50;;;11.10;99.90;;;;;;6092336;23;20508;-88
2023/09/02 03:38:58;;;;;;;10.33;9.07;;;11.40;99.90;;;;;;6115068;23;20387;-88
2023/09/02 03:41:23;;;;;;;15.40;12.80;;;10.90;99.90;;;;;;6092472;23;20392;-88
2023/09/02 03:43:49;;;;;;;13.32;11.90;;;11.20;99.90;;;;;;6115478;23;20416;-88
2023/09/02 03:46:15;;;;;;;11.50;10.40;;;10.80;99.90;;;;;;6116407;23;20384;-88
2023/09/02 03:48:41;;;;;;;13.55;12.20;;;11.10;99.90;;;;;;6092411;23;20423;-88
2023/09/02 03:51:12;;;;;;;11.65;10.45;;;10.90;99.90;;;;;;6090781;23;20369;-88
2023/09/02 03:53:41;;;;;;;11.77;10.43;;;11.00;99.90;;;;;;6116909;23;20383;-88
2023/09/02 03:56:07;;;;;;;10.55;9.52;;;10.90;99.90;;;;;;6114903;23;20511;-87
2023/09/02 03:58:33;;;;;;;8.70;7.88;;;10.90;99.90;;;;;;6117040;23;20427;-88
2023/09/02 04:00:59;;;;;;;9.18;8.27;;;10.90;99.90;;;;;;6115036;23;20373;-87
2023/09/02 04:03:26;;;;;;;13.30;12.02;;;10.80;99.90;;;;;;6092108;23;20376;-89
2023/09/02 04:05:52;;;;;;;10.82;9.77;;;10.80;99.90;;;;;;6091912;23;20368;-88
2023/09/02 04:08:19;;;;;;;14.75;13.25;;;10.90;99.90;;;;;;6091192;23;20391;-88
2023/09/02 04:10:51;;;;;;;13.32;11.98;;;10.90;99.90;;;;;;6117124;23;20892;-88
2023/09/02 04:13:18;;;;;;;13.00;11.35;;;10.90;99.90;;;;;;6090862;23;20373;-87
2023/09/02 04:15:43;;;;;;;11.50;10.30;;;10.90;99.90;;;;;;6117158;23;20438;-87
2023/09/02 04:18:09;;;;;;;11.57;10.38;;;10.90;99.90;;;;;;6090897;23;20375;-87
2023/09/02 04:20:35;;;;;;;12.13;10.70;;;10.90;99.90;;;;;;6092313;23;20368;-89
2023/09/02 04:23:01;;;;;;;11.18;9.98;;;10.90;99.90;;;;;;6116416;23;20380;-88
2023/09/02 04:25:26;;;;;;;12.37;11.23;;;10.90;99.90;;;;;;6115666;23;20377;-88
2023/09/02 04:27:52;;;;;;;12.30;11.00;;;10.90;99.90;;;;;;6092473;23;20894;-87
2023/09/02 04:30:18;;;;;;;13.75;11.70;;;10.90;99.90;;;;;;6115079;23;20404;-88
2023/09/02 04:32:47;;;;;;;15.47;13.83;;;10.90;99.90;;;;;;6092773;23;20763;-88
2023/09/02 04:35:12;;;;;;;15.15;13.52;;;10.90;99.90;;;;;;6090503;23;20384;-88
2023/09/02 04:37:38;;;;;;;19.85;16.92;;;10.90;99.90;;;;;;6116433;23;20448;-88
2023/09/02 04:40:06;;;;;;;22.60;18.53;;;10.90;99.90;;;;;;6095526;23;20390;-88
2023/09/02 04:42:31;;;;;;;27.70;21.55;;;10.90;99.90;;;;;;6121214;23;20394;-88
2023/09/02 04:44:57;;;;;;;37.42;26.00;;;11.00;99.90;;;;;;6097086;23;20371;-87
2023/09/02 04:47:22;;;;;;;31.47;23.13;;;10.90;99.90;;;;;;6095611;23;20392;-87
2023/09/02 04:49:48;;;;;;;31.77;24.10;;;10.90;99.90;;;;;;6092687;23;21012;-87
2023/09/02 04:52:13;;;;;;;28.70;22.83;;;10.90;99.90;;;;;;6094923;23;20764;-88
2023/09/02 04:54:43;;;;;;;21.05;18.83;;;10.90;99.90;;;;;;6097052;23;20369;-88
2023/09/02 04:57:09;;;;;;;19.08;17.08;;;10.90;99.90;;;;;;6097545;23;20449;-87
2023/09/02 04:59:34;;;;;;;28.80;21.48;;;11.30;99.90;;;;;;6122520;23;20892;-88
2023/09/02 05:02:00;;;;;;;17.53;15.60;;;10.90;99.90;;;;;;6098465;23;20696;-87
2023/09/02 05:04:25;;;;;;;17.40;15.60;;;10.90;99.90;;;;;;6095144;23;20379;-87
2023/09/02 05:06:51;;;;;;;22.40;18.90;;;10.90;99.90;;;;;;6122277;23;20435;-87
2023/09/02 05:09:17;;;;;;;25.35;19.60;;;10.90;99.90;;;;;;6096897;23;20569;-88
2023/09/02 05:11:42;;;;;;;16.60;15.00;;;10.90;99.90;;;;;;6098949;23;20833;-88
2023/09/02 05:14:08;;;;;;;18.63;15.97;;;10.90;99.90;;;;;;6121322;23;20378;-88
2023/09/02 05:16:33;;;;;;;16.15;14.45;;;11.00;99.90;;;;;;6098897;23;20367;-88
2023/09/02 05:18:59;;;;;;;14.67;13.17;;;11.00;99.90;;;;;;6097764;23;20383;-88
2023/09/02 05:21:25;;;;;;;17.10;14.80;;;11.00;99.90;;;;;;6098044;23;20367;-87
2023/09/02 05:23:52;;;;;;;18.42;15.32;;;11.00;99.90;;;;;;6098429;23;20382;-88
2023/09/02 05:26:18;;;;;;;15.48;13.88;;;11.10;99.90;;;;;;6120956;23;20848;-89
2023/09/02 05:28:43;;;;;;;20.98;16.75;;;11.10;99.90;;;;;;6098238;23;20393;-87
2023/09/02 05:31:09;;;;;;;15.37;13.67;;;11.20;99.90;;;;;;6120421;23;21130;-88
2023/09/02 05:33:35;;;;;;;19.52;17.42;;;11.50;99.90;;;;;;6098447;23;20454;-89
2023/09/02 05:36:00;;;;;;;14.97;13.37;;;11.30;99.90;;;;;;6121283;23;20421;-88
2023/09/02 05:38:26;;;;;;;13.50;12.20;;;11.50;99.90;;;;;;6098299;23;20751;-88
2023/09/02 05:40:52;;;;;;;13.93;12.43;;;11.30;99.90;;;;;;6097171;23;20383;-87
2023/09/02 05:43:17;;;;;;;17.70;15.80;;;11.60;99.90;;;;;;6121914;23;20371;-88
2023/09/02 05:45:43;;;;;;;18.25;16.25;;;11.60;99.90;;;;;;6116813;23;20654;-88
2023/09/02 05:48:09;;;;;;;24.10;19.37;;;11.50;99.90;;;;;;6118379;23;20367;-88
2023/09/02 05:50:34;;;;;;;22.03;18.43;;;11.20;99.90;;;;;;6122858;23;20395;-88
2023/09/02 05:53:00;;;;;;;17.02;15.18;;;11.60;99.90;;;;;;6120479;23;20379;-88
2023/09/02 05:55:26;;;;;;;15.60;14.00;;;12.10;99.90;;;;;;6123075;23;20377;-89
2023/09/02 05:57:51;;;;;;;19.42;16.85;;;11.70;99.90;;;;;;6120698;23;20367;-87
2023/09/02 06:00:17;;;;;;;19.93;16.60;;;12.00;99.90;;;;;;6097901;23;20449;-89
2023/09/02 06:02:43;;;;;;;20.48;15.88;;;11.80;99.90;;;;;;6098151;23;20696;-88
2023/09/02 06:05:08;;;;;;;17.67;15.77;;;12.10;99.90;;;;;;6097115;23;20454;-89
2023/09/02 06:07:34;;;;;;;24.97;21.13;;;12.30;99.90;;;;;;6122431;23;20382;-89
2023/09/02 06:09:59;;;;;;;29.25;23.10;;;12.50;99.90;;;;;;6096753;23;20480;-90
2023/09/02 06:12:25;;;;;;;25.07;19.83;;;12.70;99.90;;;;;;6098532;23;20465;-90
2023/09/02 06:14:51;;;;;;;24.45;19.55;;;13.10;99.90;;;;;;6121005;23;20762;-89
2023/09/02 06:17:16;;;;;;;30.63;22.40;;;13.10;99.90;;;;;;6122982;23;20382;-89
2023/09/02 06:19:42;;;;;;;21.63;18.20;;;13.20;99.90;;;;;;6097473;23;20397;-88
2023/09/02 06:22:07;;;;;;;26.10;20.60;;;13.30;99.90;;;;;;6122498;23;20375;-89
2023/09/02 06:24:33;;;;;;;27.30;20.90;;;13.50;99.90;;;;;;6098115;23;21134;-88
2023/09/02 06:27:03;;;;;;;28.85;20.10;;;13.90;99.90;;;;;;6121722;23;20876;-90
2023/09/02 06:29:32;;;;;;;25.08;20.60;;;13.80;99.90;;;;;;6123558;23;20440;-90
2023/09/02 06:31:58;;;;;;;25.30;19.20;;;14.10;99.90;;;;;;6121637;23;20367;-90
2023/09/02 06:34:24;;;;;;;26.60;20.03;;;14.40;99.90;;;;;;6122480;23;20458;-90
2023/09/02 06:36:49;;;;;;;23.80;19.77;;;14.40;99.90;;;;;;6094327;23;20406;-90
2023/09/02 06:39:15;;;;;;;21.50;17.30;;;14.70;99.90;;;;;;6122168;23;20828;-90
2023/09/02 06:41:42;;;;;;;18.87;16.83;;;14.60;99.90;;;;;;6121198;23;20886;-91
2023/09/02 06:44:08;;;;;;;20.63;17.65;;;14.70;99.90;;;;;;6096408;23;20382;-90
2023/09/02 06:46:35;;;;;;;19.80;16.97;;;14.80;99.90;;;;;;6097550;23;20367;-88
2023/09/02 06:49:03;;;;;;;19.83;17.20;;;15.00;99.90;;;;;;6096174;23;20785;-91
2023/09/02 06:51:28;;;;;;;19.48;17.48;;;15.20;99.90;;;;;;6118985;23;20848;-90
2023/09/02 06:53:54;;;;;;;19.65;17.20;;;15.40;99.90;;;;;;6120792;23;20435;-90
2023/09/02 06:56:19;;;;;;;18.53;16.53;;;15.50;99.90;;;;;;6097701;23;20371;-92
2023/09/02 06:58:45;;;;;;;17.30;14.98;;;16.00;99.90;;;;;;6097677;23;20458;-91
2023/09/02 07:01:26;;;;;;;16.97;15.17;;;16.40;99.90;;;;;;6121615;23;20379;-91
2023/09/02 07:03:55;;;;;;;16.65;14.85;;;15.90;99.90;;;;;;6122806;23;20379;-91
2023/09/02 07:06:21;;;;;;;15.67;14.07;;;16.30;99.90;;;;;;6121033;23;21084;-91
2023/09/02 07:08:47;;;;;;;16.80;15.03;;;16.30;99.90;;;;;;6099258;23;20852;-92
2023/09/02 07:11:13;;;;;;;16.20;14.60;;;16.50;99.90;;;;;;6097200;23;20376;-91
2023/09/02 07:13:40;;;;;;;16.30;14.60;;;16.30;99.90;;;;;;6098934;23;20371;-91
2023/09/02 07:16:06;;;;;;;15.60;14.05;;;16.50;99.90;;;;;;6122510;23;20363;-91
2023/09/02 07:18:33;;;;;;;15.98;14.48;;;16.90;99.90;;;;;;6097465;23;20434;-91
2023/09/02 07:21:03;;;;;;;16.23;14.63;;;16.70;99.90;;;;;;6098007;23;20367;-91
2023/09/02 07:23:30;;;;;;;16.40;14.80;;;16.90;99.90;;;;;;6097372;23;20386;-91
2023/09/02 07:25:57;;;;;;;15.75;13.90;;;17.00;99.90;;;;;;6098526;23;20754;-91
2023/09/02 07:28:22;;;;;;;16.55;14.82;;;16.90;99.90;;;;;;6121457;23;20432;-92
2023/09/02 07:30:48;;;;;;;15.88;14.27;;;17.30;99.90;;;;;;6122545;23;20913;-92
2023/09/02 07:33:14;;;;;;;21.10;19.10;;;17.60;99.90;;;;;;6098192;23;20450;-91
2023/09/02 07:35:39;;;;;;;16.50;14.80;;;17.50;99.90;;;;;;6123107;23;20860;-90
2023/09/02 07:38:06;;;;;;;14.97;13.33;;;17.80;99.90;;;;;;6122955;23;20414;-91
2023/09/02 07:40:32;;;;;;;13.60;12.20;;;17.70;99.90;;;;;;6097408;23;20386;-92
2023/09/02 07:43:02;;;;;;;12.27;11.00;;;18.10;99.90;;;;;;6098658;23;20374;-92
2023/09/02 07:45:28;;;;;;;13.50;12.10;;;17.90;99.90;;;;;;6097115;23;20371;-91
2023/09/02 07:47:54;;;;;;;13.25;11.95;;;18.30;99.90;;;;;;6098787;23;20837;-91
2023/09/02 07:50:20;;;;;;;13.00;11.70;;;18.40;99.90;;;;;;6096586;23;20401;-90
2023/09/02 07:52:47;;;;;;;11.70;10.50;;;18.50;99.90;;;;;;6098602;23;20930;-90
2023/09/02 07:55:13;;;;;;;11.55;10.32;;;18.80;99.90;;;;;;6122287;23;20378;-91
2023/09/02 07:57:38;;;;;;;11.77;10.53;;;18.50;99.90;;;;;;6121493;23;20380;-91
2023/09/02 08:00:05;;;;;;;10.82;9.60;;;18.90;99.90;;;;;;6098447;23;20372;-90
2023/09/02 08:02:30;;;;;;;12.50;10.90;;;18.70;99.90;;;;;;6121190;23;20449;-91
2023/09/02 08:04:56;;;;;;;11.38;10.20;;;18.90;99.90;;;;;;6098277;23;20477;-90
2023/09/02 08:07:22;;;;;;;10.83;9.63;;;19.10;99.90;;;;;;6096789;23;20477;-90
2023/09/02 08:09:51;;;;;;;11.45;10.25;;;19.40;99.90;;;;;;6098321;23;20898;-91
2023/09/02 08:12:17;;;;;;;12.30;11.10;;;19.40;99.90;;;;;;6097276;23;20383;-91
2023/09/02 08:14:42;;;;;;;11.47;9.40;;;19.40;99.90;;;;;;6121974;23;20470;-93
2023/09/02 08:17:08;;;;;;;9.77;8.10;;;19.30;99.90;;;;;;6097652;23;20844;-91
2023/09/02 08:19:34;;;;;;;7.90;6.63;;;19.60;99.90;;;;;;6096480;23;20374;-89
2023/09/02 08:22:00;;;;;;;7.13;6.13;;;19.50;99.90;;;;;;6122350;23;20470;-90
2023/09/02 08:24:25;;;;;;;7.30;5.60;;;20.00;99.90;;;;;;6120759;23;20383;-90
2023/09/02 08:26:51;;;;;;;6.80;5.75;;;19.90;99.90;;;;;;6098074;23;20497;-90
2023/09/02 08:29:16;;;;;;;6.60;6.00;;;19.70;99.90;;;;;;6120734;23;20399;-89
2023/09/02 08:31:42;;;;;;;6.65;5.90;;;20.00;99.90;;;;;;6099431;23;21094;-90
2023/09/02 08:34:08;;;;;;;6.57;4.87;;;20.20;99.90;;;;;;6098945;23;20375;-90
2023/09/02 08:36:33;;;;;;;5.38;3.90;;;20.20;99.90;;;;;;6098471;23;20705;-90
2023/09/02 08:38:59;;;;;;;5.67;4.13;;;19.90;99.90;;;;;;6099658;23;20919;-90
2023/09/02 08:41:26;;;;;;;4.78;4.25;;;19.90;99.90;;;;;;6098154;23;20698;-89
2023/09/02 08:43:59;;;;;;;4.78;4.07;;;20.00;99.90;;;;;;6100260;23;20402;-91
2023/09/02 08:46:26;;;;;;;5.75;4.68;;;20.40;99.90;;;;;;6098032;23;20951;-90
2023/09/02 08:48:55;;;;;;;5.68;4.45;;;20.20;99.90;;;;;;6124084;23;20507;-91
2023/09/02 08:51:23;;;;;;;7.93;5.95;;;20.20;99.90;;;;;;6123276;23;20377;-90
2023/09/02 08:53:50;;;;;;;5.93;4.63;;;20.30;99.90;;;;;;6098532;23;20384;-90
2023/09/02 08:56:16;;;;;;;4.85;3.90;;;20.70;99.90;;;;;;6099219;23;20371;-89
2023/09/02 08:58:43;;;;;;;5.13;3.03;;;20.70;99.90;;;;;;6097554;23;20405;-90
2023/09/02 09:01:10;;;;;;;7.63;4.45;;;20.50;99.90;;;;;;6099589;23;20845;-89
2023/09/02 09:03:38;;;;;;;6.00;4.57;;;20.50;99.90;;;;;;6097953;23;20363;-91
2023/09/02 09:06:09;;;;;;;4.45;3.75;;;20.60;99.90;;;;;;6099631;23;20367;-91
2023/09/02 09:08:35;;;;;;;5.40;3.10;;;20.70;99.90;;;;;;6122891;23;20712;-90
2023/09/02 09:11:04;;;;;;;6.40;5.03;;;21.00;99.90;;;;;;6123222;23;20730;-92
2023/09/02 09:13:31;;;;;;;6.88;5.15;;;21.10;99.90;;;;;;6099526;23;20816;-89
2023/09/02 09:15:57;;;;;;;7.55;5.90;;;21.20;99.90;;;;;;6097476;23;20370;-91
2023/09/02 09:18:24;;;;;;;7.70;5.30;;;21.00;99.90;;;;;;6123815;23;20454;-90
2023/09/02 09:20:50;;;;;;;6.20;5.43;;;21.50;99.90;;;;;;6097256;23;20371;-91
2023/09/02 09:23:15;;;;;;;6.30;5.60;;;21.60;99.90;;;;;;6123144;23;20378;-91
2023/09/02 09:25:42;;;;;;;5.65;4.70;;;21.60;99.90;;;;;;6121830;23;20707;-90
2023/09/02 09:28:12;;;;;;;5.68;5.10;;;21.70;99.90;;;;;;6122824;23;20371;-91
2023/09/02 09:30:38;;;;;;;7.57;5.60;;;21.40;99.90;;;;;;6097751;23;20432;-90
2023/09/02 09:33:05;;;;;;;7.50;6.28;;;21.50;99.90;;;;;;6121308;23;20371;-91
2023/09/02 09:35:35;;;;;;;6.85;6.07;;;21.50;98.00;;;;;;6123036;23;20704;-90
2023/09/02 09:38:01;;;;;;;8.38;6.55;;;21.80;99.90;;;;;;6096765;23;20737;-92
2023/09/02 09:40:38;;;;;;;6.75;6.15;;;21.60;97.80;;;;;;6098773;23;20379;-91
2023/09/02 09:43:16;;;;;;;7.35;6.03;;;21.80;99.50;;;;;;6097461;23;20708;-90
2023/09/02 09:45:51;;;;;;;6.45;5.78;;;21.90;95.20;;;;;;6097736;23;20730;-90
2023/09/02 09:48:16;;;;;;;7.70;6.50;;;22.00;93.40;;;;;;6123144;23;20863;-94
2023/09/02 09:50:42;;;;;;;7.38;6.53;;;22.10;95.20;;;;;;6096891;23;20427;-88
2023/09/02 09:53:09;;;;;;;7.60;6.75;;;22.20;96.80;;;;;;6098204;23;20378;-92
2023/09/02 09:55:37;;;;;;;7.47;5.85;;;22.40;93.80;;;;;;6120554;23;20874;-92
2023/09/02 09:58:03;;;;;;;6.80;5.70;;;22.70;96.00;;;;;;6098620;23;20417;-90
2023/09/02 10:00:30;;;;;;;6.38;5.70;;;22.90;92.60;;;;;;6122489;23;20409;-95
2023/09/02 10:02:58;;;;;;;6.40;5.53;;;23.10;94.20;;;;;;6099623;23;20415;-95
2023/09/02 10:05:27;;;;;;;6.63;5.30;;;23.90;82.50;;;;;;6099390;23;20371;-94
2023/09/02 10:08:04;;;;;;;6.47;4.05;;;23.60;98.20;;;;;;6125604;23;20469;-91
2023/09/02 10:10:31;;;;;;;7.35;4.85;;;24.00;90.20;;;;;;6098650;23;20394;-91
2023/09/02 10:12:58;;;;;;;5.20;4.45;;;24.40;78.70;;;;;;6121536;23;20855;-92
2023/09/02 10:15:26;;;;;;;5.60;4.18;;;24.90;72.80;;;;;;6124676;23;20373;-96
2023/09/02 10:17:59;;;;;;;4.47;4.03;;;25.30;70.90;;;;;;6098932;23;20371;-93
2023/09/02 10:20:30;;;;;;;6.70;4.90;;;25.60;67.90;;;;;;6124594;23;20443;-95
2023/09/02 10:23:05;;;;;;;6.38;4.40;;;25.60;57.30;;;;;;6100352;23;20387;-94
2023/09/02 10:26:08;;;;;;;6.13;4.30;;;25.20;59.00;;;;;;6098510;23;20383;-95
2023/09/02 10:28:59;;;;;;;4.95;3.90;;;24.80;61.00;;;;;;6102983;23;20375;-96
2023/09/02 10:31:37;;;;;;;5.20;4.30;;;24.90;63.30;;;;;;6098663;23;20375;-92
2023/09/02 10:34:12;;;;;;;4.63;3.85;;;25.50;65.60;;;;;;6122647;23;20377;-91
2023/09/02 10:36:43;;;;;;;5.25;4.53;;;26.10;57.10;;;;;;6099091;23;20445;-90
2023/09/02 10:39:23;;;;;;;5.67;3.80;;;26.60;54.90;;;;;;6121631;23;20375;-93
2023/09/02 10:41:49;;;;;;;5.15;4.35;;;26.90;56.60;;;;;;6123519;23;20402;-94
2023/09/02 10:44:17;;;;;;;5.25;4.30;;;27.40;57.60;;;;;;6097574;23;20371;-94
2023/09/02 10:46:44;;;;;;;4.80;4.30;;;27.90;53.80;;;;;;6122100;23;20449;-93
2023/09/02 10:49:10;;;;;;;5.25;4.70;;;28.10;50.60;;;;;;6124147;23;20442;-94
2023/09/02 10:51:38;;;;;;;5.63;4.63;;;28.30;47.60;;;;;;6122873;23;20461;-94
2023/09/02 10:54:04;;;;;;;5.68;4.50;;;28.40;48.30;;;;;;6124141;23;20864;-96
2023/09/02 10:56:34;;;;;;;4.53;3.45;;;28.40;50.60;;;;;;6122753;23;20363;-92
2023/09/02 10:59:05;;;;;;;4.85;4.00;;;28.40;52.90;;;;;;6100405;23;20377;-94
2023/09/02 11:01:48;;;;;;;5.18;4.00;;;28.50;48.20;;;;;;6098569;23;20466;-95
2023/09/02 11:04:16;;;;;;;4.97;3.80;;;28.00;46.90;;;;;;6098776;23;20374;-93
2023/09/02 11:07:20;;;;;;;4.60;3.67;;;27.50;48.70;;;;;;6099158;23;20371;-94
2023/09/02 11:09:54;;;;;;;5.28;4.32;;;27.60;51.70;;;;;;6090256;23;20403;-92
2023/09/02 11:12:20;;;;;;;5.15;4.05;;;28.00;52.40;;;;;;6123525;23;20402;-96
2023/09/02 11:15:07;;;;;;;4.93;2.97;;;28.20;46.10;;;;;;6097755;23;20371;-92
2023/09/02 11:17:34;;;;;;;4.13;2.28;;;28.20;53.60;;;;;;6121104;23;20379;-95
2023/09/02 11:20:07;;;;;;;4.75;2.45;;;28.40;52.00;;;;;;6099439;23;20371;-94
2023/09/02 11:23:06;;;;;;;4.13;2.10;;;28.20;48.90;;;;;;6096660;23;20874;-94
2023/09/02 11:25:41;;;;;;;4.93;2.50;;;27.60;52.30;;;;;;6122401;23;20383;-95
2023/09/02 11:28:19;;;;;;;4.45;2.50;;;27.10;52.90;;;;;;6098328;23;20386;-95
2023/09/02 11:31:13;;;;;;;3.67;2.42;;;27.00;53.50;;;;;;6097118;23;20394;-94
2023/09/02 11:33:48;;;;;;;3.72;2.60;;;27.40;58.90;;;;;;6098678;23;20386;-96
2023/09/02 11:36:18;;;;;;;5.47;2.47;;;27.80;59.10;;;;;;6096128;23;20851;-95
2023/09/02 11:38:44;;;;;;;3.92;2.42;;;28.40;54.90;;;;;;6096341;23;20420;-93
2023/09/02 11:41:23;;;;;;;2.97;1.60;;;29.00;55.80;;;;;;6096763;23;20379;-94
2023/09/02 11:43:48;;;;;;;3.17;1.60;;;29.70;52.00;;;;;;6094793;23;20471;-94
2023/09/02 11:46:14;;;;;;;3.30;1.30;;;29.40;46.90;;;;;;6098038;23;20940;-92
2023/09/02 11:48:40;;;;;;;2.70;1.10;;;28.90;47.50;;;;;;6095934;23;20378;-95
2023/09/02 11:51:11;;;;;;;2.72;1.10;;;28.10;51.30;;;;;;6098905;23;20401;-95
2023/09/02 11:53:36;;;;;;;2.67;1.35;;;27.60;54.00;;;;;;6098584;23;20371;-94
2023/09/02 11:56:02;;;;;;;3.20;1.30;;;27.10;55.90;;;;;;6099481;23;20863;-92
2023/09/02 11:58:28;;;;;;;3.45;1.23;;;27.30;56.30;;;;;;6122595;23;20704;-95
2023/09/02 12:00:54;;;;;;;2.30;0.87;;;27.40;52.10;;;;;;6096712;23;20377;-92
2023/09/02 12:03:24;;;;;;;2.67;0.90;;;27.90;62.40;;;;;;6121857;23;20682;-92
2023/09/02 12:05:55;;;;;;;1.80;0.70;;;28.40;51.60;;;;;;6097999;23;20378;-95
2023/09/02 12:08:22;;;;;;;3.22;0.70;;;28.80;53.80;;;;;;6117192;23;20433;-90
2023/09/02 12:10:48;;;;;;;2.47;0.90;;;29.50;51.60;;;;;;6122916;23;20391;-92
2023/09/02 12:13:15;;;;;;;1.60;0.70;;;30.00;49.50;;;;;;6099069;23;20385;-92
2023/09/02 12:15:41;;;;;;;1.85;0.80;;;30.30;45.50;;;;;;6124210;23;20426;-94
2023/09/02 12:18:07;;;;;;;2.08;0.90;;;30.10;45.70;;;;;;6098829;23;20848;-93
2023/09/02 12:20:33;;;;;;;2.40;0.70;;;29.60;45.20;;;;;;6099969;23;20379;-93
2023/09/02 12:22:59;;;;;;;2.22;0.80;;;29.40;47.80;;;;;;6098302;23;20410;-93
2023/09/02 12:25:25;;;;;;;2.53;0.70;;;29.30;48.20;;;;;;6099562;23;20704;-91
2023/09/02 12:27:51;;;;;;;1.77;0.52;;;29.30;48.10;;;;;;6097796;23;20449;-91
2023/09/02 12:30:33;;;;;;;2.25;0.60;;;29.60;49.00;;;;;;6123669;23;20394;-92
2023/09/02 12:32:59;;;;;;;1.42;0.63;;;29.90;49.00;;;;;;6123828;23;20394;-95
2023/09/02 12:35:25;;;;;;;1.83;0.57;;;30.00;47.50;;;;;;6122867;23;20433;-94
2023/09/02 12:38:04;;;;;;;1.77;0.55;;;30.30;46.80;;;;;;6124008;23;20370;-93
2023/09/02 12:40:30;;;;;;;1.70;0.40;;;30.80;48.30;;;;;;6092532;23;20782;-94
2023/09/02 12:42:56;;;;;;;2.28;0.47;;;31.00;44.90;;;;;;6094714;23;20703;-95